sensor_id;sensor_type;location;lat;lon;timestamp;temperature;humidity
16158;DHT22;8184;60.256;18.694;2022-11-20T00:01:22;1.10;99.90
16158;DHT22;8184;60.256;18.694;2022-11-20T00:03:50;1.20;99.90
16158;DHT22;8184;60.256;18.694;2022-11-20T00:06:18;1.20;99.90
16158;DHT22;8184;60.256;18.694;2022-11-20T00:08:47;1.30;99.90
16158;DHT22;8184;60.256;18.694;2022-11-20T00:11:16;1.30;99.90
16158;DHT22;8184;60.256;18.694;2022-11-20T00:13:44;1.40;99.90
16158;DHT22;8184;60.256;18.694;2022-11-20T00:16:15;1.40;99.90
16158;DHT22;8184;60.256;18.694;2022-11-20T00:18:45;1.30;99.90
16158;DHT22;8184;60.256;18.694;2022-11-20T00:21:14;1.10;99.90
16158;DHT22;8184;60.256;18.694;2022-11-20T00:23:42;0.80;99.90
16158;DHT22;8184;60.256;18.694;2022-11-20T00:26:11;0.60;99.90
16158;DHT22;8184;60.256;18.694;2022-11-20T00:28:40;0.60;99.90
16158;DHT22;8184;60.256;18.694;2022-11-20T00:31:09;0.60;99.90
16158;DHT22;8184;60.256;18.694;2022-11-20T00:33:37;0.60;99.90
16158;DHT22;8184;60.256;18.694;2022-11-20T00:36:08;0.50;99.90
16158;DHT22;8184;60.256;18.694;2022-11-20T00:38:37;0.50;99.90
16158;DHT22;8184;60.256;18.694;2022-11-20T00:41:07;0.50;99.90
16158;DHT22;8184;60.256;18.694;2022-11-20T00:43:36;0.50;99.90
16158;DHT22;8184;60.256;18.694;2022-11-20T00:46:05;0.40;99.90
16158;DHT22;8184;60.256;18.694;2022-11-20T00:48:34;0.50;99.90
16158;DHT22;8184;60.256;18.694;2022-11-20T00:51:02;0.40;99.90
16158;DHT22;8184;60.256;18.694;2022-11-20T00:53:31;0.30;99.90
16158;DHT22;8184;60.256;18.694;2022-11-20T00:56:03;0.30;99.90
16158;DHT22;8184;60.256;18.694;2022-11-20T00:58:34;0.40;99.90
16158;DHT22;8184;60.256;18.694;2022-11-20T01:01:03;0.40;99.90
16158;DHT22;8184;60.256;18.694;2022-11-20T01:03:32;0.40;99.90
16158;DHT22;8184;60.256;18.694;2022-11-20T01:06:01;0.50;99.90
16158;DHT22;8184;60.256;18.694;2022-11-20T01:08:33;0.50;99.90
16158;DHT22;8184;60.256;18.694;2022-11-20T01:11:01;0.40;99.90
16158;DHT22;8184;60.256;18.694;2022-11-20T01:13:30;0.30;99.90
16158;DHT22;8184;60.256;18.694;2022-11-20T01:16:05;0.60;99.90
16158;DHT22;8184;60.256;18.694;2022-11-20T01:18:33;0.60;99.90
16158;DHT22;8184;60.256;18.694;2022-11-20T01:21:03;0.60;99.90
16158;DHT22;8184;60.256;18.694;2022-11-20T01:23:33;0.60;99.90
16158;DHT22;8184;60.256;18.694;2022-11-20T01:26:02;0.70;99.90
16158;DHT22;8184;60.256;18.694;2022-11-20T01:28:31;0.60;99.90
16158;DHT22;8184;60.256;18.694;2022-11-20T01:30:59;0.60;99.90
16158;DHT22;8184;60.256;18.694;2022-11-20T01:33:27;0.60;99.90
16158;DHT22;8184;60.256;18.694;2022-11-20T01:36:02;0.50;99.90
16158;DHT22;8184;60.256;18.694;2022-11-20T01:38:31;0.40;99.90
16158;DHT22;8184;60.256;18.694;2022-11-20T01:41:00;0.50;99.90
16158;DHT22;8184;60.256;18.694;2022-11-20T01:43:29;0.50;99.90
16158;DHT22;8184;60.256;18.694;2022-11-20T01:46:01;0.50;99.90
16158;DHT22;8184;60.256;18.694;2022-11-20T01:48:31;0.60;99.90
16158;DHT22;8184;60.256;18.694;2022-11-20T01:50:59;0.70;99.90
16158;DHT22;8184;60.256;18.694;2022-11-20T01:53:29;0.80;99.90
16158;DHT22;8184;60.256;18.694;2022-11-20T01:55:59;0.80;99.90
16158;DHT22;8184;60.256;18.694;2022-11-20T01:58:30;0.80;99.90
16158;DHT22;8184;60.256;18.694;2022-11-20T02:00:59;0.70;99.90
16158;DHT22;8184;60.256;18.694;2022-11-20T02:03:28;0.70;99.90
16158;DHT22;8184;60.256;18.694;2022-11-20T02:05:57;0.70;99.90
16158;DHT22;8184;60.256;18.694;2022-11-20T02:08:27;0.70;99.90
16158;DHT22;8184;60.256;18.694;2022-11-20T02:10:55;0.80;99.90
16158;DHT22;8184;60.256;18.694;2022-11-20T02:13:23;0.80;99.90
16158;DHT22;8184;60.256;18.694;2022-11-20T02:16:12;0.70;99.90
16158;DHT22;8184;60.256;18.694;2022-11-20T02:18:40;0.70;99.90
16158;DHT22;8184;60.256;18.694;2022-11-20T02:21:11;0.70;99.90
16158;DHT22;8184;60.256;18.694;2022-11-20T02:23:51;0.70;99.90
16158;DHT22;8184;60.256;18.694;2022-11-20T02:26:19;0.70;99.90
16158;DHT22;8184;60.256;18.694;2022-11-20T02:28:48;0.70;99.90
16158;DHT22;8184;60.256;18.694;2022-11-20T02:31:20;0.70;99.90
16158;DHT22;8184;60.256;18.694;2022-11-20T02:33:53;0.60;99.90
16158;DHT22;8184;60.256;18.694;2022-11-20T02:36:21;0.50;99.90
16158;DHT22;8184;60.256;18.694;2022-11-20T02:38:52;0.50;99.90
16158;DHT22;8184;60.256;18.694;2022-11-20T02:41:20;0.50;99.90
16158;DHT22;8184;60.256;18.694;2022-11-20T02:43:48;0.50;99.90
16158;DHT22;8184;60.256;18.694;2022-11-20T02:46:17;0.50;99.90
16158;DHT22;8184;60.256;18.694;2022-11-20T02:48:45;0.50;99.90
16158;DHT22;8184;60.256;18.694;2022-11-20T02:51:13;0.40;99.90
16158;DHT22;8184;60.256;18.694;2022-11-20T02:53:41;0.50;99.90
16158;DHT22;8184;60.256;18.694;2022-11-20T02:56:11;0.50;99.90
16158;DHT22;8184;60.256;18.694;2022-11-20T02:58:42;0.50;99.90
16158;DHT22;8184;60.256;18.694;2022-11-20T03:01:10;0.60;99.90
16158;DHT22;8184;60.256;18.694;2022-11-20T03:03:38;0.60;99.90
16158;DHT22;8184;60.256;18.694;2022-11-20T03:06:07;0.70;99.90
16158;DHT22;8184;60.256;18.694;2022-11-20T03:08:35;0.70;99.90
16158;DHT22;8184;60.256;18.694;2022-11-20T03:11:05;0.70;99.90
16158;DHT22;8184;60.256;18.694;2022-11-20T03:13:35;0.60;99.90
16158;DHT22;8184;60.256;18.694;2022-11-20T03:16:10;0.40;99.90
16158;DHT22;8184;60.256;18.694;2022-11-20T03:18:39;0.40;99.90
16158;DHT22;8184;60.256;18.694;2022-11-20T03:21:07;0.50;99.90
16158;DHT22;8184;60.256;18.694;2022-11-20T03:23:36;0.50;99.90
16158;DHT22;8184;60.256;18.694;2022-11-20T03:26:08;0.40;99.90
16158;DHT22;8184;60.256;18.694;2022-11-20T03:28:38;0.40;99.90
16158;DHT22;8184;60.256;18.694;2022-11-20T03:31:07;0.30;99.90
16158;DHT22;8184;60.256;18.694;2022-11-20T03:33:36;0.30;99.90
16158;DHT22;8184;60.256;18.694;2022-11-20T03:36:05;0.30;99.90
16158;DHT22;8184;60.256;18.694;2022-11-20T03:38:34;0.30;99.90
16158;DHT22;8184;60.256;18.694;2022-11-20T03:41:03;0.20;99.90
16158;DHT22;8184;60.256;18.694;2022-11-20T03:43:31;0.10;99.90
16158;DHT22;8184;60.256;18.694;2022-11-20T03:46:01;0.10;99.90
16158;DHT22;8184;60.256;18.694;2022-11-20T03:48:29;0.10;99.90
16158;DHT22;8184;60.256;18.694;2022-11-20T03:51:08;0.00;99.90
16158;DHT22;8184;60.256;18.694;2022-11-20T03:53:36;0.10;99.90
16158;DHT22;8184;60.256;18.694;2022-11-20T03:56:05;0.00;99.90
16158;DHT22;8184;60.256;18.694;2022-11-20T03:58:33;0.00;99.90
16158;DHT22;8184;60.256;18.694;2022-11-20T04:01:10;0.10;99.90
16158;DHT22;8184;60.256;18.694;2022-11-20T04:03:38;0.20;99.90
16158;DHT22;8184;60.256;18.694;2022-11-20T04:06:08;0.20;99.90
16158;DHT22;8184;60.256;18.694;2022-11-20T04:08:37;0.20;99.90
16158;DHT22;8184;60.256;18.694;2022-11-20T04:11:09;0.20;99.90
16158;DHT22;8184;60.256;18.694;2022-11-20T04:13:37;0.10;99.90
16158;DHT22;8184;60.256;18.694;2022-11-20T04:16:05;0.10;99.90
16158;DHT22;8184;60.256;18.694;2022-11-20T04:18:35;0.00;99.90
16158;DHT22;8184;60.256;18.694;2022-11-20T04:21:04;0.10;99.90
16158;DHT22;8184;60.256;18.694;2022-11-20T04:23:32;0.10;99.90
16158;DHT22;8184;60.256;18.694;2022-11-20T04:26:01;0.10;99.90
16158;DHT22;8184;60.256;18.694;2022-11-20T04:28:30;0.10;99.90
16158;DHT22;8184;60.256;18.694;2022-11-20T04:31:02;0.10;99.90
16158;DHT22;8184;60.256;18.694;2022-11-20T04:33:30;0.10;99.90
16158;DHT22;8184;60.256;18.694;2022-11-20T04:36:02;0.20;99.90
16158;DHT22;8184;60.256;18.694;2022-11-20T04:38:31;0.20;99.90
16158;DHT22;8184;60.256;18.694;2022-11-20T04:41:00;0.30;99.90
16158;DHT22;8184;60.256;18.694;2022-11-20T04:43:28;0.30;99.90
16158;DHT22;8184;60.256;18.694;2022-11-20T04:45:57;0.30;99.90
16158;DHT22;8184;60.256;18.694;2022-11-20T04:48:25;0.20;99.90
16158;DHT22;8184;60.256;18.694;2022-11-20T04:50:55;0.20;99.90
16158;DHT22;8184;60.256;18.694;2022-11-20T04:53:25;0.30;99.90
16158;DHT22;8184;60.256;18.694;2022-11-20T04:56:01;0.20;99.90
16158;DHT22;8184;60.256;18.694;2022-11-20T04:58:29;0.30;99.90
16158;DHT22;8184;60.256;18.694;2022-11-20T05:01:00;0.20;99.90
16158;DHT22;8184;60.256;18.694;2022-11-20T05:03:28;0.10;99.90
16158;DHT22;8184;60.256;18.694;2022-11-20T05:05:58;0.20;99.90
16158;DHT22;8184;60.256;18.694;2022-11-20T05:08:28;0.20;99.90
16158;DHT22;8184;60.256;18.694;2022-11-20T05:10:59;0.20;99.90
16158;DHT22;8184;60.256;18.694;2022-11-20T05:13:27;0.30;99.90
16158;DHT22;8184;60.256;18.694;2022-11-20T05:16:01;0.30;99.90
16158;DHT22;8184;60.256;18.694;2022-11-20T05:18:29;0.30;99.90
16158;DHT22;8184;60.256;18.694;2022-11-20T05:21:00;0.30;99.90
16158;DHT22;8184;60.256;18.694;2022-11-20T05:23:30;0.30;99.90
16158;DHT22;8184;60.256;18.694;2022-11-20T05:25:59;0.30;99.90
16158;DHT22;8184;60.256;18.694;2022-11-20T05:28:28;0.40;99.90
16158;DHT22;8184;60.256;18.694;2022-11-20T05:31:03;0.30;99.90
16158;DHT22;8184;60.256;18.694;2022-11-20T05:33:32;0.30;99.90
16158;DHT22;8184;60.256;18.694;2022-11-20T05:36:00;0.30;99.90
16158;DHT22;8184;60.256;18.694;2022-11-20T05:38:29;0.30;99.90
16158;DHT22;8184;60.256;18.694;2022-11-20T05:41:02;0.30;99.90
16158;DHT22;8184;60.256;18.694;2022-11-20T05:43:31;0.30;99.90
16158;DHT22;8184;60.256;18.694;2022-11-20T05:46:00;0.20;99.90
16158;DHT22;8184;60.256;18.694;2022-11-20T05:48:28;0.30;99.90
16158;DHT22;8184;60.256;18.694;2022-11-20T05:50:57;0.30;99.90
16158;DHT22;8184;60.256;18.694;2022-11-20T05:53:25;0.40;99.90
16158;DHT22;8184;60.256;18.694;2022-11-20T05:55:58;0.40;99.90
16158;DHT22;8184;60.256;18.694;2022-11-20T05:58:27;0.40;99.90
16158;DHT22;8184;60.256;18.694;2022-11-20T06:01:02;0.40;99.90
16158;DHT22;8184;60.256;18.694;2022-11-20T06:03:30;0.40;99.90
16158;DHT22;8184;60.256;18.694;2022-11-20T06:05:58;0.40;99.90
16158;DHT22;8184;60.256;18.694;2022-11-20T06:08:27;0.40;99.90
16158;DHT22;8184;60.256;18.694;2022-11-20T06:10:55;0.40;99.90
16158;DHT22;8184;60.256;18.694;2022-11-20T06:13:25;0.30;99.90
16158;DHT22;8184;60.256;18.694;2022-11-20T06:15:53;0.30;99.90
16158;DHT22;8184;60.256;18.694;2022-11-20T06:18:21;0.30;99.90
16158;DHT22;8184;60.256;18.694;2022-11-20T06:20:49;0.30;99.90
16158;DHT22;8184;60.256;18.694;2022-11-20T06:23:27;0.30;99.90
16158;DHT22;8184;60.256;18.694;2022-11-20T06:25:58;0.30;99.90
16158;DHT22;8184;60.256;18.694;2022-11-20T06:28:30;0.30;99.90
16158;DHT22;8184;60.256;18.694;2022-11-20T06:30:58;0.40;99.90
16158;DHT22;8184;60.256;18.694;2022-11-20T06:33:26;0.50;99.90
16158;DHT22;8184;60.256;18.694;2022-11-20T06:35:56;0.50;99.90
16158;DHT22;8184;60.256;18.694;2022-11-20T06:38:29;0.50;99.90
16158;DHT22;8184;60.256;18.694;2022-11-20T06:40:57;0.50;99.90
16158;DHT22;8184;60.256;18.694;2022-11-20T06:43:25;0.50;99.90
16158;DHT22;8184;60.256;18.694;2022-11-20T06:45:55;0.40;99.90
16158;DHT22;8184;60.256;18.694;2022-11-20T06:48:25;0.40;99.90
16158;DHT22;8184;60.256;18.694;2022-11-20T06:50:56;0.50;99.90
16158;DHT22;8184;60.256;18.694;2022-11-20T06:53:27;0.50;99.90
16158;DHT22;8184;60.256;18.694;2022-11-20T06:55:55;0.60;99.90
16158;DHT22;8184;60.256;18.694;2022-11-20T06:58:25;0.50;99.90
16158;DHT22;8184;60.256;18.694;2022-11-20T07:00:57;0.60;99.90
16158;DHT22;8184;60.256;18.694;2022-11-20T07:03:25;0.60;99.90
16158;DHT22;8184;60.256;18.694;2022-11-20T07:05:54;0.60;99.90
16158;DHT22;8184;60.256;18.694;2022-11-20T07:08:22;0.60;99.90
16158;DHT22;8184;60.256;18.694;2022-11-20T07:10:51;0.60;99.90
16158;DHT22;8184;60.256;18.694;2022-11-20T07:13:19;0.60;99.90
16158;DHT22;8184;60.256;18.694;2022-11-20T07:15:47;0.50;99.90
16158;DHT22;8184;60.256;18.694;2022-11-20T07:18:17;0.50;99.90
16158;DHT22;8184;60.256;18.694;2022-11-20T07:20:45;0.50;99.90
16158;DHT22;8184;60.256;18.694;2022-11-20T07:23:14;0.50;99.90
16158;DHT22;8184;60.256;18.694;2022-11-20T07:25:42;0.60;99.90
16158;DHT22;8184;60.256;18.694;2022-11-20T07:28:10;0.50;99.90
16158;DHT22;8184;60.256;18.694;2022-11-20T07:30:41;0.50;99.90
16158;DHT22;8184;60.256;18.694;2022-11-20T07:33:09;0.50;99.90
16158;DHT22;8184;60.256;18.694;2022-11-20T07:35:39;0.60;99.90
16158;DHT22;8184;60.256;18.694;2022-11-20T07:38:07;0.60;99.90
16158;DHT22;8184;60.256;18.694;2022-11-20T07:40:35;0.60;99.90
16158;DHT22;8184;60.256;18.694;2022-11-20T07:43:04;0.60;99.90
16158;DHT22;8184;60.256;18.694;2022-11-20T07:45:32;0.60;99.90
16158;DHT22;8184;60.256;18.694;2022-11-20T07:48:00;0.60;99.90
16158;DHT22;8184;60.256;18.694;2022-11-20T07:50:28;0.70;99.90
16158;DHT22;8184;60.256;18.694;2022-11-20T07:53:04;0.60;99.90
16158;DHT22;8184;60.256;18.694;2022-11-20T07:55:34;0.70;99.90
16158;DHT22;8184;60.256;18.694;2022-11-20T07:58:03;0.60;99.90
16158;DHT22;8184;60.256;18.694;2022-11-20T08:00:32;0.60;99.90
16158;DHT22;8184;60.256;18.694;2022-11-20T08:03:02;0.60;99.90
16158;DHT22;8184;60.256;18.694;2022-11-20T08:05:30;0.60;99.90
16158;DHT22;8184;60.256;18.694;2022-11-20T08:07:58;0.60;99.90
16158;DHT22;8184;60.256;18.694;2022-11-20T08:10:28;0.60;99.90
16158;DHT22;8184;60.256;18.694;2022-11-20T08:12:56;0.70;99.90
16158;DHT22;8184;60.256;18.694;2022-11-20T08:15:41;0.60;99.90
16158;DHT22;8184;60.256;18.694;2022-11-20T08:18:18;0.60;99.90
16158;DHT22;8184;60.256;18.694;2022-11-20T08:20:57;0.60;99.90
16158;DHT22;8184;60.256;18.694;2022-11-20T08:23:25;0.70;99.90
16158;DHT22;8184;60.256;18.694;2022-11-20T08:25:54;0.70;99.90
16158;DHT22;8184;60.256;18.694;2022-11-20T08:28:23;0.70;99.90
16158;DHT22;8184;60.256;18.694;2022-11-20T08:30:51;0.70;99.90
16158;DHT22;8184;60.256;18.694;2022-11-20T08:33:25;0.80;99.90
16158;DHT22;8184;60.256;18.694;2022-11-20T08:35:53;0.70;99.90
16158;DHT22;8184;60.256;18.694;2022-11-20T08:38:22;0.70;99.90
16158;DHT22;8184;60.256;18.694;2022-11-20T08:40:50;0.70;99.90
16158;DHT22;8184;60.256;18.694;2022-11-20T08:43:34;0.70;99.90
16158;DHT22;8184;60.256;18.694;2022-11-20T08:46:02;0.80;99.90
16158;DHT22;8184;60.256;18.694;2022-11-20T08:48:30;0.80;99.90
16158;DHT22;8184;60.256;18.694;2022-11-20T08:50:59;0.80;99.90
16158;DHT22;8184;60.256;18.694;2022-11-20T08:53:27;0.80;99.90
16158;DHT22;8184;60.256;18.694;2022-11-20T08:55:56;0.80;99.90
16158;DHT22;8184;60.256;18.694;2022-11-20T08:58:24;0.80;99.90
16158;DHT22;8184;60.256;18.694;2022-11-20T09:00:54;0.80;99.90
16158;DHT22;8184;60.256;18.694;2022-11-20T09:03:23;0.80;99.90
16158;DHT22;8184;60.256;18.694;2022-11-20T09:05:58;0.80;99.90
16158;DHT22;8184;60.256;18.694;2022-11-20T09:08:27;0.80;99.90
16158;DHT22;8184;60.256;18.694;2022-11-20T09:10:56;0.80;99.90
16158;DHT22;8184;60.256;18.694;2022-11-20T09:13:24;0.80;99.90
16158;DHT22;8184;60.256;18.694;2022-11-20T09:15:55;0.90;99.90
16158;DHT22;8184;60.256;18.694;2022-11-20T09:18:23;0.90;99.90
16158;DHT22;8184;60.256;18.694;2022-11-20T09:20:55;0.90;99.90
16158;DHT22;8184;60.256;18.694;2022-11-20T09:23:23;0.90;99.90
16158;DHT22;8184;60.256;18.694;2022-11-20T09:25:51;0.90;99.90
16158;DHT22;8184;60.256;18.694;2022-11-20T09:28:22;0.90;99.90
16158;DHT22;8184;60.256;18.694;2022-11-20T09:30:50;0.80;99.90
16158;DHT22;8184;60.256;18.694;2022-11-20T09:33:19;0.90;99.90
16158;DHT22;8184;60.256;18.694;2022-11-20T09:35:47;0.80;99.90
16158;DHT22;8184;60.256;18.694;2022-11-20T09:38:16;0.80;99.90
16158;DHT22;8184;60.256;18.694;2022-11-20T09:40:45;0.90;99.90
16158;DHT22;8184;60.256;18.694;2022-11-20T09:43:15;0.80;99.90
16158;DHT22;8184;60.256;18.694;2022-11-20T09:45:50;0.80;99.90
16158;DHT22;8184;60.256;18.694;2022-11-20T09:48:31;0.90;99.90
16158;DHT22;8184;60.256;18.694;2022-11-20T09:51:04;0.90;99.90
16158;DHT22;8184;60.256;18.694;2022-11-20T09:53:37;0.90;99.90
16158;DHT22;8184;60.256;18.694;2022-11-20T09:56:09;0.90;99.90
16158;DHT22;8184;60.256;18.694;2022-11-20T09:58:47;0.90;99.90
16158;DHT22;8184;60.256;18.694;2022-11-20T10:01:18;0.90;99.90
16158;DHT22;8184;60.256;18.694;2022-11-20T10:03:51;0.90;99.90
16158;DHT22;8184;60.256;18.694;2022-11-20T10:06:24;0.90;99.90
16158;DHT22;8184;60.256;18.694;2022-11-20T10:08:58;1.00;99.90
16158;DHT22;8184;60.256;18.694;2022-11-20T10:11:30;1.00;99.90
16158;DHT22;8184;60.256;18.694;2022-11-20T10:14:02;0.90;99.90
16158;DHT22;8184;60.256;18.694;2022-11-20T10:16:40;0.80;99.90
16158;DHT22;8184;60.256;18.694;2022-11-20T10:19:18;0.70;99.90
16158;DHT22;8184;60.256;18.694;2022-11-20T10:21:53;0.60;99.90
16158;DHT22;8184;60.256;18.694;2022-11-20T10:24:34;0.70;99.90
16158;DHT22;8184;60.256;18.694;2022-11-20T10:27:06;0.70;99.90
16158;DHT22;8184;60.256;18.694;2022-11-20T10:29:38;0.70;99.90
16158;DHT22;8184;60.256;18.694;2022-11-20T10:32:08;0.70;99.90
16158;DHT22;8184;60.256;18.694;2022-11-20T10:34:43;0.80;99.90
16158;DHT22;8184;60.256;18.694;2022-11-20T10:37:13;0.80;99.90
16158;DHT22;8184;60.256;18.694;2022-11-20T10:39:44;0.80;99.90
16158;DHT22;8184;60.256;18.694;2022-11-20T10:42:26;0.70;99.90
16158;DHT22;8184;60.256;18.694;2022-11-20T10:44:58;0.80;99.90
16158;DHT22;8184;60.256;18.694;2022-11-20T10:47:35;0.90;99.90
16158;DHT22;8184;60.256;18.694;2022-11-20T10:50:05;0.90;99.90
16158;DHT22;8184;60.256;18.694;2022-11-20T10:52:39;0.90;99.90
16158;DHT22;8184;60.256;18.694;2022-11-20T10:55:11;0.90;99.90
16158;DHT22;8184;60.256;18.694;2022-11-20T10:57:51;1.00;99.90
16158;DHT22;8184;60.256;18.694;2022-11-20T11:00:20;0.90;99.90
16158;DHT22;8184;60.256;18.694;2022-11-20T11:02:49;0.90;99.90
16158;DHT22;8184;60.256;18.694;2022-11-20T11:05:22;0.90;99.90
16158;DHT22;8184;60.256;18.694;2022-11-20T11:07:51;1.00;99.90
16158;DHT22;8184;60.256;18.694;2022-11-20T11:10:22;0.90;99.90
16158;DHT22;8184;60.256;18.694;2022-11-20T11:12:52;0.90;99.90
16158;DHT22;8184;60.256;18.694;2022-11-20T11:15:27;0.90;99.90
16158;DHT22;8184;60.256;18.694;2022-11-20T11:17:55;0.90;99.90
16158;DHT22;8184;60.256;18.694;2022-11-20T11:20:25;0.90;99.90
16158;DHT22;8184;60.256;18.694;2022-11-20T11:22:54;0.90;99.90
16158;DHT22;8184;60.256;18.694;2022-11-20T11:25:26;0.90;99.90
16158;DHT22;8184;60.256;18.694;2022-11-20T11:27:57;0.90;99.90
16158;DHT22;8184;60.256;18.694;2022-11-20T11:30:26;0.80;99.90
16158;DHT22;8184;60.256;18.694;2022-11-20T11:33:04;0.70;99.90
16158;DHT22;8184;60.256;18.694;2022-11-20T11:35:38;0.60;99.90
16158;DHT22;8184;60.256;18.694;2022-11-20T11:38:17;0.70;99.90
16158;DHT22;8184;60.256;18.694;2022-11-20T11:40:47;0.70;99.90
16158;DHT22;8184;60.256;18.694;2022-11-20T11:43:17;0.80;99.90
16158;DHT22;8184;60.256;18.694;2022-11-20T11:46:04;0.80;99.90
16158;DHT22;8184;60.256;18.694;2022-11-20T11:48:34;0.80;99.90
16158;DHT22;8184;60.256;18.694;2022-11-20T11:51:07;0.80;99.90
16158;DHT22;8184;60.256;18.694;2022-11-20T11:53:36;0.80;99.90
16158;DHT22;8184;60.256;18.694;2022-11-20T11:56:08;0.80;99.90
16158;DHT22;8184;60.256;18.694;2022-11-20T11:58:40;0.80;99.90
16158;DHT22;8184;60.256;18.694;2022-11-20T12:01:14;0.80;99.90
16158;DHT22;8184;60.256;18.694;2022-11-20T12:03:48;0.80;99.90
16158;DHT22;8184;60.256;18.694;2022-11-20T12:06:21;0.70;99.90
16158;DHT22;8184;60.256;18.694;2022-11-20T12:08:55;0.70;99.90
16158;DHT22;8184;60.256;18.694;2022-11-20T12:11:29;0.80;99.90
16158;DHT22;8184;60.256;18.694;2022-11-20T12:14:00;0.80;99.90
16158;DHT22;8184;60.256;18.694;2022-11-20T12:16:31;0.70;99.90
16158;DHT22;8184;60.256;18.694;2022-11-20T12:19:02;0.80;99.90
16158;DHT22;8184;60.256;18.694;2022-11-20T12:21:34;0.90;99.90
16158;DHT22;8184;60.256;18.694;2022-11-20T12:24:06;0.90;99.90
16158;DHT22;8184;60.256;18.694;2022-11-20T12:26:44;0.90;99.90
16158;DHT22;8184;60.256;18.694;2022-11-20T12:29:18;0.80;99.90
16158;DHT22;8184;60.256;18.694;2022-11-20T12:31:52;0.80;99.90
16158;DHT22;8184;60.256;18.694;2022-11-20T12:34:30;0.80;99.90
16158;DHT22;8184;60.256;18.694;2022-11-20T12:37:04;0.70;99.90
16158;DHT22;8184;60.256;18.694;2022-11-20T12:39:39;0.70;99.90
16158;DHT22;8184;60.256;18.694;2022-11-20T12:48:14;0.70;99.90
16158;DHT22;8184;60.256;18.694;2022-11-20T12:50:49;0.80;99.90
16158;DHT22;8184;60.256;18.694;2022-11-20T12:53:42;0.80;99.90
16158;DHT22;8184;60.256;18.694;2022-11-20T12:56:16;0.80;99.90
16158;DHT22;8184;60.256;18.694;2022-11-20T12:58:48;0.90;99.90
16158;DHT22;8184;60.256;18.694;2022-11-20T13:01:21;1.00;99.90
16158;DHT22;8184;60.256;18.694;2022-11-20T13:04:07;1.10;99.90
16158;DHT22;8184;60.256;18.694;2022-11-20T13:06:36;1.00;99.90
16158;DHT22;8184;60.256;18.694;2022-11-20T13:09:07;1.00;99.90
16158;DHT22;8184;60.256;18.694;2022-11-20T13:11:37;1.00;99.90
16158;DHT22;8184;60.256;18.694;2022-11-20T13:16:53;1.10;99.90
16158;DHT22;8184;60.256;18.694;2022-11-20T13:19:30;1.10;99.90
16158;DHT22;8184;60.256;18.694;2022-11-20T13:21:58;1.10;99.90
16158;DHT22;8184;60.256;18.694;2022-11-20T13:24:28;1.10;99.90
16158;DHT22;8184;60.256;18.694;2022-11-20T13:27:05;1.10;99.90
16158;DHT22;8184;60.256;18.694;2022-11-20T13:29:45;1.10;99.90
16158;DHT22;8184;60.256;18.694;2022-11-20T13:32:13;1.20;99.90
16158;DHT22;8184;60.256;18.694;2022-11-20T13:34:51;1.20;99.90
16158;DHT22;8184;60.256;18.694;2022-11-20T13:37:26;1.10;99.90
16158;DHT22;8184;60.256;18.694;2022-11-20T13:40:10;1.10;99.90
16158;DHT22;8184;60.256;18.694;2022-11-20T13:42:40;1.10;99.90
16158;DHT22;8184;60.256;18.694;2022-11-20T13:45:11;1.10;99.90
16158;DHT22;8184;60.256;18.694;2022-11-20T13:47:48;1.10;99.90
16158;DHT22;8184;60.256;18.694;2022-11-20T13:50:17;1.10;99.90
16158;DHT22;8184;60.256;18.694;2022-11-20T13:52:47;1.10;99.90
16158;DHT22;8184;60.256;18.694;2022-11-20T13:55:23;1.10;99.90
16158;DHT22;8184;60.256;18.694;2022-11-20T13:57:59;1.10;99.90
16158;DHT22;8184;60.256;18.694;2022-11-20T14:00:32;1.20;99.90
16158;DHT22;8184;60.256;18.694;2022-11-20T14:03:08;1.20;99.90
16158;DHT22;8184;60.256;18.694;2022-11-20T14:05:39;1.20;99.90
16158;DHT22;8184;60.256;18.694;2022-11-20T14:08:17;1.30;99.90
16158;DHT22;8184;60.256;18.694;2022-11-20T14:10:50;1.30;99.90
16158;DHT22;8184;60.256;18.694;2022-11-20T14:13:18;1.20;99.90
16158;DHT22;8184;60.256;18.694;2022-11-20T14:15:47;1.20;99.90
16158;DHT22;8184;60.256;18.694;2022-11-20T14:18:19;1.30;99.90
16158;DHT22;8184;60.256;18.694;2022-11-20T14:20:48;1.30;99.90
16158;DHT22;8184;60.256;18.694;2022-11-20T14:23:23;1.20;99.90
16158;DHT22;8184;60.256;18.694;2022-11-20T14:25:57;1.20;99.90
16158;DHT22;8184;60.256;18.694;2022-11-20T14:28:26;1.30;99.90
16158;DHT22;8184;60.256;18.694;2022-11-20T14:30:55;1.20;99.90
16158;DHT22;8184;60.256;18.694;2022-11-20T14:33:25;1.30;99.90
16158;DHT22;8184;60.256;18.694;2022-11-20T14:35:54;1.30;99.90
16158;DHT22;8184;60.256;18.694;2022-11-20T14:38:24;1.30;99.90
16158;DHT22;8184;60.256;18.694;2022-11-20T14:40:53;1.40;99.90
16158;DHT22;8184;60.256;18.694;2022-11-20T14:43:23;1.30;99.90
16158;DHT22;8184;60.256;18.694;2022-11-20T14:45:58;1.30;99.90
16158;DHT22;8184;60.256;18.694;2022-11-20T14:48:29;1.30;99.90
16158;DHT22;8184;60.256;18.694;2022-11-20T14:50:57;1.00;99.90
16158;DHT22;8184;60.256;18.694;2022-11-20T14:53:26;1.00;99.90
16158;DHT22;8184;60.256;18.694;2022-11-20T14:55:55;1.00;99.90
16158;DHT22;8184;60.256;18.694;2022-11-20T14:58:26;0.90;99.90
16158;DHT22;8184;60.256;18.694;2022-11-20T15:00:56;0.80;99.90
16158;DHT22;8184;60.256;18.694;2022-11-20T15:03:30;0.50;99.90
16158;DHT22;8184;60.256;18.694;2022-11-20T15:06:02;0.30;99.90
16158;DHT22;8184;60.256;18.694;2022-11-20T15:08:32;0.40;99.90
16158;DHT22;8184;60.256;18.694;2022-11-20T15:11:00;0.40;99.90
16158;DHT22;8184;60.256;18.694;2022-11-20T15:13:31;0.40;99.90
16158;DHT22;8184;60.256;18.694;2022-11-20T15:16:01;0.50;99.90
16158;DHT22;8184;60.256;18.694;2022-11-20T15:18:36;0.60;99.90
16158;DHT22;8184;60.256;18.694;2022-11-20T15:21:07;0.60;99.90
16158;DHT22;8184;60.256;18.694;2022-11-20T15:23:41;0.70;99.90
16158;DHT22;8184;60.256;18.694;2022-11-20T15:26:09;0.60;99.90
16158;DHT22;8184;60.256;18.694;2022-11-20T15:28:47;0.60;99.90
16158;DHT22;8184;60.256;18.694;2022-11-20T15:31:18;0.60;99.90
16158;DHT22;8184;60.256;18.694;2022-11-20T15:33:47;0.60;99.90
16158;DHT22;8184;60.256;18.694;2022-11-20T15:36:15;0.60;99.90
16158;DHT22;8184;60.256;18.694;2022-11-20T15:38:43;0.60;99.90
16158;DHT22;8184;60.256;18.694;2022-11-20T15:41:11;0.60;99.90
16158;DHT22;8184;60.256;18.694;2022-11-20T15:43:39;0.60;99.90
16158;DHT22;8184;60.256;18.694;2022-11-20T15:46:11;0.60;99.90
16158;DHT22;8184;60.256;18.694;2022-11-20T15:48:41;0.60;99.90
16158;DHT22;8184;60.256;18.694;2022-11-20T15:51:22;0.70;99.90
16158;DHT22;8184;60.256;18.694;2022-11-20T15:53:54;0.60;99.90
16158;DHT22;8184;60.256;18.694;2022-11-20T15:56:24;0.60;99.90
16158;DHT22;8184;60.256;18.694;2022-11-20T15:58:52;0.60;99.90
16158;DHT22;8184;60.256;18.694;2022-11-20T16:01:22;0.60;99.90
16158;DHT22;8184;60.256;18.694;2022-11-20T16:03:50;0.70;99.90
16158;DHT22;8184;60.256;18.694;2022-11-20T16:06:18;0.60;99.90
16158;DHT22;8184;60.256;18.694;2022-11-20T16:08:47;0.70;99.90
16158;DHT22;8184;60.256;18.694;2022-11-20T16:11:16;0.80;99.90
16158;DHT22;8184;60.256;18.694;2022-11-20T16:13:46;0.60;99.90
16158;DHT22;8184;60.256;18.694;2022-11-20T16:16:34;0.50;99.90